• Join FlightAware (Why Join?)
  • Login
  • US Flag 
06:35AM EDT


 

Airport Tracker/Info


-or-


 

Live Flight TrackerFlight Track Log ✈ UTY4549 ✈ 20-Jun-2013 ✈ YPMH - YMEN / MEB

Flight Track Log - Related Links

Times and Time Zones

All times are in EDT time to prevent confusion due to time zone crossing. See the UTY4549 flight status page for this flight to view local times or setup timezone preferences in your user account.

Time Position Orientation Groundspeed Altitude Reporting Facility
EDT Latitude Longitude Course Direction KTS MPH feet Rate Location/Type
01:45AM -29.7103 135.7008 115° Southeast 23,900  Level Aus ATC (Calculated)
01:45AM -29.7052 135.8270 116° Southeast 23,900 420 Level Aus ATC (Calculated)
01:47AM -29.7560 135.9701 112° Southeast  Level FlightAware Approximate
01:47AM -29.6967 136.0332 117° Southeast 23,900  Level Aus ATC (Calculated)
01:48AM -29.7994 136.0929 112° Southeast  Level FlightAware Approximate
01:48AM -29.6923 136.1363 118° Southeast 23,900  Level Aus ATC (Calculated)
01:49AM -29.7451 136.1582 114° Southeast  Level FlightAware Approximate
01:50AM -29.7491 136.2763 115° Southeast  Level FlightAware Approximate
01:50AM -29.7502 136.2792 119° Southeast 35,000  Level Aus ATC (Calculated)
01:50AM -29.7773 136.3462 119° Southeast 35,000  Level Aus ATC (Calculated)
01:50AM -29.7773 136.3462 119° Southeast 35,000  Level Aus ATC (Calculated)
01:52AM -29.8373 136.4950 115° Southeast  Level FlightAware Approximate
01:53AM -29.8772 136.5943 115° Southeast  Level FlightAware Approximate
01:54AM -29.9250 136.7136 115° Southeast  Level FlightAware Approximate
01:54AM -29.9553 136.7894 119° Southeast 35,000  Level Aus ATC (Calculated)
01:54AM -29.9962 136.8921 119° Southeast 35,000  Level Aus ATC (Calculated)
01:55AM -30.0345 136.9884 120° Southeast 35,000  Level Aus ATC (Calculated)
01:57AM -30.1173 137.1977 115° Southeast  Level FlightAware Approximate
01:58AM -30.1641 137.3163 115° Southeast  Level FlightAware Approximate
01:58AM -30.1775 137.3502 121° Southeast 35,000  Level Aus ATC (Calculated)
02:00AM -30.2636 137.5700 114° Southeast  Level FlightAware Approximate
02:01AM -30.3100 137.6890 114° Southeast  Level FlightAware Approximate
02:01AM -30.3371 137.7585 123° Southeast 35,000  Level Aus ATC (Calculated)
02:02AM -30.3563 137.8081 114° Southeast  Level FlightAware Approximate
02:03AM -30.4226 137.9790 114° Southeast  Level FlightAware Approximate
02:04AM -30.4686 138.0984 114° Southeast  Level FlightAware Approximate
02:05AM -30.5599 138.1753 139° Southeast  Level Estimated
02:06AM -30.6428 138.2640 137° Southeast  Level FlightAware Approximate
02:06AM -30.6003 138.4419 139° Southeast 35,000  Level Aus ATC (Calculated)
02:07AM -30.7395 138.5848 139° Southeast 35,000  Level Aus ATC (Calculated)
02:07AM -30.8091 138.6564 141° Southeast 35,000 60 Level Aus ATC (Calculated)
02:09AM -30.9033 138.7536 138° Southeast  Level FlightAware Approximate
02:09AM -30.8605 138.7056 138° Southeast 467 537 35,200  Level Aus ATC (RADAR)
02:10AM -30.9546 138.7997 139° Southeast 485 558 35,200  Level Aus ATC (RADAR)
02:11AM -31.0143 138.8710 134° Southeast 503 579 35,200  Level Aus ATC (RADAR)
02:12AM -31.1258 138.9936 137° Southeast 509 586 35,200  Level Aus ATC (RADAR)
02:13AM -31.2112 139.0822 138° Southeast 503 579 35,200  Level Aus ATC (RADAR)
02:14AM -31.3134 139.1876 139° Southeast 498 573 35,200  Level Aus ATC (RADAR)
02:14AM -31.3734 139.2496 139° Southeast 497 572 35,200  Level Aus ATC (RADAR)
02:15AM -31.5016 139.3842 138° Southeast 498 573 35,200  Level Aus ATC (RADAR)
02:17AM -31.6215 139.5090 138° Southeast 497 572 35,200  Level Aus ATC (RADAR)
02:17AM -31.6897 139.5820 138° Southeast 495 570 35,200  Level Aus ATC (RADAR)
02:18AM -31.7750 139.6716 138° Southeast 498 573 35,200  Level Aus ATC (RADAR)
02:19AM -31.8691 139.7706 138° Southeast 496 571 35,200  Level Aus ATC (RADAR)
02:20AM -31.9290 139.8333 138° Southeast 497 572 35,200  Level Aus ATC (RADAR)
02:21AM -32.0320 139.9411 138° Southeast 499 574 35,200  Level Aus ATC (RADAR)
02:21AM -32.1169 140.0295 139° Southeast 493 567 35,200  Level Aus ATC (RADAR)
02:22AM -32.1762 140.0925 138° Southeast 494 568 35,200  Level Aus ATC (RADAR)
02:23AM -32.2600 140.1812 138° Southeast 490 564 35,200  Level Aus ATC (RADAR)
02:24AM -32.3620 140.2906 138° Southeast 492 566 35,200  Level Aus ATC (RADAR)
02:26AM -32.5542 140.4980 138° Southeast 491 565 35,200  Level Aus ATC (RADAR)
02:28AM -32.7346 140.6967 137° Southeast 484 557 35,200  Level Aus ATC (RADAR)
02:30AM -32.9387 140.9246 137° Southeast 481 554 35,200  Level Aus ATC (RADAR)
02:31AM -33.1002 141.1049 137° Southeast 476 548 35,200  Level Aus ATC (RADAR)
02:33AM -33.2116 141.2305 137° Southeast 470 541 35,200  Level Aus ATC (RADAR)
02:34AM -33.3733 141.4120 137° Southeast 476 548 35,200  Level Aus ATC (RADAR)
02:36AM -33.5249 141.5841 137° Southeast 475 547 35,200  Level Aus ATC (RADAR)
02:37AM -33.6449 141.7180 137° Southeast 472 543 35,200  Level Aus ATC (RADAR)
02:38AM -33.7645 141.8491 138° Southeast 469 540 35,200  Level Aus ATC (RADAR)
02:40AM -33.8926 141.9898 138° Southeast 467 537 35,200  Level Aus ATC (RADAR)
02:41AM -34.0485 142.1687 136° Southeast 461 531 35,200 -180 Level Aus ATC (RADAR)
02:41AM -34.0670 142.1900 136° Southeast 456 525 35,000 -300 Descending FlightAware
02:42AM -34.1210 142.2520 136° Southeast 453 521 35,000  Level FlightAware
02:43AM -34.1900 142.3310 137° Southeast 452 520 35,000  Level FlightAware
02:44AM -34.2330 142.3820 136° Southeast 451 519 35,000 120 Level FlightAware
02:44AM -34.3091 142.4683 136° Southeast 454 522 35,200  Climbing Aus ATC (RADAR)
02:44AM -34.3210 142.4810 136° Southeast 449 517 35,000 -240 Descending FlightAware
02:45AM -34.3660 142.5330 136° Southeast 447 514 35,000  Level FlightAware
02:46AM -34.4410 142.6190 137° Southeast 446 513 35,000  Level FlightAware
02:46AM -34.5000 142.6880 136° Southeast 451 519 35,000  Level FlightAware
02:47AM -34.5690 142.7690 136° Southeast 451 519 35,000  Level FlightAware
02:48AM -34.6260 142.8360 136° Southeast 450 518 35,000  Level FlightAware
02:48AM -34.6880 142.9100 136° Southeast 446 513 35,000  Level FlightAware
02:49AM -34.7560 142.9890 136° Southeast 439 505 35,000 60 Level FlightAware
02:50AM -34.8180 143.0626 136° Southeast 443 510 35,200  Climbing Aus ATC (RADAR)
02:50AM -34.8590 143.1110 136° Southeast 436 502 35,000 -240 Descending FlightAware
02:51AM -34.9250 143.1890 136° Southeast 440 506 35,000  Level FlightAware
02:52AM -34.9870 143.2520 140° Southeast 428 493 35,000  Level FlightAware
02:52AM -35.0540 143.3060 147° Southeast 434 499 35,000  Level FlightAware
02:53AM -35.1230 143.3560 149° Southeast 428 493 35,000  Level FlightAware
02:54AM -35.1990 143.4120 149° Southeast 431 496 35,000  Level FlightAware
02:54AM -35.2670 143.4640 148° Southeast 432 497 35,000  Level FlightAware
02:55AM -35.3350 143.5150 149° Southeast 422 486 35,000  Level FlightAware
02:56AM -35.4110 143.5720 149° Southeast 423 487 35,000  Level FlightAware
02:56AM -35.4780 143.6230 148° Southeast 418 481 35,000  Level FlightAware
02:57AM -35.5450 143.6740 148° Southeast 420 483 35,000 120 Level FlightAware
02:58AM -35.5978 143.7142 148° Southeast 423 487 35,200  Climbing Aus ATC (RADAR)
02:58AM -35.6210 143.7320 148° Southeast 417 480 35,000 -240 Descending FlightAware
02:59AM -35.6860 143.7820 148° Southeast 421 484 35,000  Level FlightAware
02:59AM -35.7620 143.8400 148° Southeast 420 483 35,000  Level FlightAware
02:59AM -35.7790 143.8530 148° Southeast 418 481 35,000  Level FlightAware
03:01AM -35.9360 143.9740 148° Southeast 421 484 35,000  Level FlightAware
03:02AM -36.0030 144.0250 148° Southeast 419 482 35,000 -360 Level FlightAware
03:02AM -36.0760 144.0820 148° Southeast 404 465 34,500 -900 Descending FlightAware
03:03AM -36.1470 144.1370 148° Southeast 383 441 33,700 -1,080 Descending FlightAware
03:04AM -36.2070 144.1840 148° Southeast 379 436 33,000 -1,080 Descending FlightAware
03:05AM -36.2680 144.2310 148° Southeast 378 435 32,300 -660 Descending FlightAware
03:06AM -36.3110 144.2650 147° Southeast 363 418 31,900 -900 Descending FlightAware
03:06AM -36.4236 144.3522 147° Southeast 356 410 30,800 -1,740 Descending Aus ATC (RADAR)
03:06AM -36.4340 144.3610 147° Southeast 364 419 30,400 -2,400 Descending FlightAware
03:07AM -36.4900 144.4060 147° Southeast 364 419 28,900 -2,160 Descending FlightAware
03:08AM -36.5443 144.4474 147° Southeast 358 412 27,700 -2,280 Descending Aus ATC (RADAR)
03:08AM -36.5470 144.4500 147° Southeast 363 418 27,400 -2,940 Descending FlightAware
03:08AM -36.6050 144.4950 148° Southeast 367 422 25,600 -2,700 Descending FlightAware
03:09AM -36.6690 144.5450 148° Southeast 366 421 23,600 -2,460 Descending FlightAware
03:10AM -36.7234 144.5860 148° Southeast 358 412 22,300 -2,520 Descending Aus ATC (RADAR)
03:10AM -36.7260 144.5880 148° Southeast 360 414 21,900 -1,440 Descending FlightAware
03:11AM -36.7880 144.6360 148° Southeast 340 391 20,600 -1,800 Descending FlightAware
03:11AM -36.8320 144.6570 159° South 330 380 19,600 -2,880 Descending FlightAware
03:12AM -36.9050 144.6750 169° South 315 362 17,900 -2,280 Descending FlightAware
03:13AM -36.9620 144.6870 170° South 314 361 16,400 -2,220 Descending FlightAware
03:13AM -37.0270 144.7010 170° South 308 354 14,800 -2,100 Descending FlightAware
03:14AM -37.0820 144.7140 169° South 301 346 13,500 -1,860 Descending FlightAware
03:15AM -37.1267 144.7437 169° South 293 337 12,500 -1,980 Descending Aus ATC (RADAR)
03:15AM -37.1290 144.7460 169° South 297 342 12,100 -2,160 Descending FlightAware
03:16AM -37.1850 144.7860 150° Southeast 291 335 10,700 -1,620 Descending FlightAware
03:16AM -37.2268 144.8147 150° Southeast 286 329 10,000 -1,500 Descending Aus ATC (RADAR)
03:16AM -37.2310 144.8190 150° Southeast 290 334 9,700 -1,800 Descending FlightAware
03:16AM -37.2440 144.8390 129° Southeast 284 327 9,400 -1,200 Descending FlightAware
03:17AM -37.2510 144.8530 122° Southeast 284 327 9,200 -1,080 Descending FlightAware
03:17AM -37.2720 144.8930 123° Southeast 282 325 8,700 -1,080 Descending FlightAware
03:18AM -37.2890 144.9290 121° Southeast 280 322 8,200 -1,080 Descending FlightAware
03:18AM -37.3060 144.9640 121° Southeast 283 326 7,800 -1,140 Descending FlightAware
03:18AM -37.3200 144.9930 121° Southeast 285 328 7,400 -1,200 Descending FlightAware
03:19AM -37.3410 145.0350 122° Southeast 281 323 6,800 -1,140 Descending FlightAware
03:19AM -37.3640 145.0630 136° Southeast 277 319 6,400 -900 Descending FlightAware
03:20AM -37.4090 145.1090 141° Southeast 274 315 5,800 -780 Descending FlightAware
03:20AM -37.4320 145.1320 142° Southeast 271 312 5,500 -780 Descending FlightAware
03:21AM -37.4620 145.1630 141° Southeast 270 311 5,100 -540 Descending FlightAware
03:21AM -37.4950 145.1860 151° Southeast 269 310 5,000 -240 Descending FlightAware
03:22AM -37.5170 145.2010 152° Southeast 256 295 4,900 -240 Descending FlightAware
03:22AM -37.5540 145.2190 159° South 250 288 4,800 -420 Descending FlightAware
03:23AM -37.5810 145.2310 161° South 247 284 4,500 -1,080 Descending FlightAware
03:23AM -37.6100 145.2430 162° South 244 281 3,900 -900 Descending FlightAware
03:24AM -37.6420 145.2540 165° South 243 280 3,700 -540 Descending FlightAware
03:24AM -37.6750 145.2480 188° South 240 276 3,400 -540 Descending FlightAware
03:24AM -37.6900 145.2410 200° South 244 281 3,300 -480 Descending FlightAware
03:25AM -37.6990 145.2300 224° Southwest 243 280 3,200 -480 Descending FlightAware
03:25AM -37.7060 145.2110 245° Southwest 243 280 3,100 -480 Descending FlightAware
03:25AM -37.7200 145.1570 252° West 238 274 2,800 -300 Descending FlightAware
03:26AM -37.7230 145.1300 262° West 237 273 2,800  Level FlightAware
03:26AM -37.7270 145.0860 263° West 193 222 2,800 -420 Level FlightAware
03:27AM -37.7270 145.0600 270° West 175 201 2,400 -1,080 Descending FlightAware
03:27AM -37.7270 145.0490 270° West 171 197 2,200 -960 Descending FlightAware
03:28AM -37.7280 145.0180 268° West 150 173 1,700 -840 Descending FlightAware
03:28AM -37.7290 145.0070 263° West 140 161 1,500 -840 Descending FlightAware
03:28AM -37.7290 144.9830 270° West 125 144 1,100 -660 Descending FlightAware
03:29AM -37.7300 144.9640 266° West 120 138 900 -600 Descending FlightAware
03:29AM -37.7300 144.9480 270° West 119 137 600 -720 Descending FlightAware
03:30AM -37.7310 144.9270 267° West 121 139 300 -780 Descending FlightAware
03:30AM -37.7310 144.9200 270° West 119 137 100 -1,200 Descending FlightAware
03:31AM -37.7310 144.8970 270° West 38 44 -120 Descending FlightAware
03:31AM -37.7310 144.8940 270° West 11 13  Level FlightAware
03:32AM -37.7290 144.8940 360° North 8 9  Level FlightAware
03:32AM -37.7290 144.8950 90° East 9 10  Level FlightAware
03:33AM -37.7290 144.8970 90° East 17 20  Level FlightAware
03:33AM -37.7290 144.8990 90° East 14 16  Level FlightAware
03:34AM -37.7280 144.9000 38° Northeast 10 12  Level FlightAware
03:34AM -37.7280 144.8990 270° West 5 6  Level FlightAware